sensor_id;sensor_type;location;lat;lon;timestamp;temperature;humidity
18581;DHT22;9420;50.876;7.012;2023-05-10T00:00:35;13.20;99.90
18581;DHT22;9420;50.876;7.012;2023-05-10T00:03:02;13.20;99.90
18581;DHT22;9420;50.876;7.012;2023-05-10T00:05:30;13.20;99.90
18581;DHT22;9420;50.876;7.012;2023-05-10T00:07:57;13.20;99.90
18581;DHT22;9420;50.876;7.012;2023-05-10T00:10:26;13.20;99.90
18581;DHT22;9420;50.876;7.012;2023-05-10T00:12:53;13.20;99.90
18581;DHT22;9420;50.876;7.012;2023-05-10T00:15:20;13.20;99.90
18581;DHT22;9420;50.876;7.012;2023-05-10T00:17:47;13.20;99.90
18581;DHT22;9420;50.876;7.012;2023-05-10T00:20:14;13.20;99.90
18581;DHT22;9420;50.876;7.012;2023-05-10T00:22:41;13.30;99.90
18581;DHT22;9420;50.876;7.012;2023-05-10T00:25:09;13.30;99.90
18581;DHT22;9420;50.876;7.012;2023-05-10T00:27:37;13.30;99.90
18581;DHT22;9420;50.876;7.012;2023-05-10T00:30:06;13.30;99.90
18581;DHT22;9420;50.876;7.012;2023-05-10T00:32:35;13.30;99.90
18581;DHT22;9420;50.876;7.012;2023-05-10T00:35:03;13.30;99.90
18581;DHT22;9420;50.876;7.012;2023-05-10T00:37:30;13.30;99.90
18581;DHT22;9420;50.876;7.012;2023-05-10T00:39:57;13.20;99.90
18581;DHT22;9420;50.876;7.012;2023-05-10T00:42:24;13.20;99.90
18581;DHT22;9420;50.876;7.012;2023-05-10T00:44:53;13.20;99.90
18581;DHT22;9420;50.876;7.012;2023-05-10T00:47:20;13.20;99.90
18581;DHT22;9420;50.876;7.012;2023-05-10T00:49:47;13.20;99.90
18581;DHT22;9420;50.876;7.012;2023-05-10T00:52:14;13.20;99.90
18581;DHT22;9420;50.876;7.012;2023-05-10T00:54:42;13.30;99.90
18581;DHT22;9420;50.876;7.012;2023-05-10T00:57:09;13.20;99.90
18581;DHT22;9420;50.876;7.012;2023-05-10T00:59:36;13.20;99.90
18581;DHT22;9420;50.876;7.012;2023-05-10T01:02:05;13.20;99.90
18581;DHT22;9420;50.876;7.012;2023-05-10T01:04:33;13.20;99.90
18581;DHT22;9420;50.876;7.012;2023-05-10T01:07:02;13.20;99.90
18581;DHT22;9420;50.876;7.012;2023-05-10T01:09:29;13.20;99.90
18581;DHT22;9420;50.876;7.012;2023-05-10T01:11:57;13.20;99.90
18581;DHT22;9420;50.876;7.012;2023-05-10T01:14:25;13.20;99.90
18581;DHT22;9420;50.876;7.012;2023-05-10T01:16:54;13.20;99.90
18581;DHT22;9420;50.876;7.012;2023-05-10T01:19:24;13.20;99.90
18581;DHT22;9420;50.876;7.012;2023-05-10T01:22:02;13.20;99.90
18581;DHT22;9420;50.876;7.012;2023-05-10T01:31:33;13.20;99.90
18581;DHT22;9420;50.876;7.012;2023-05-10T01:34:27;13.30;99.90
18581;DHT22;9420;50.876;7.012;2023-05-10T01:37:04;13.30;99.90
18581;DHT22;9420;50.876;7.012;2023-05-10T01:39:40;13.30;99.90
18581;DHT22;9420;50.876;7.012;2023-05-10T01:42:16;13.30;99.90
18581;DHT22;9420;50.876;7.012;2023-05-10T01:44:54;13.30;99.90
18581;DHT22;9420;50.876;7.012;2023-05-10T01:47:31;13.20;99.90
18581;DHT22;9420;50.876;7.012;2023-05-10T01:50:09;13.30;99.90
18581;DHT22;9420;50.876;7.012;2023-05-10T01:52:44;13.30;99.90
18581;DHT22;9420;50.876;7.012;2023-05-10T01:55:18;13.30;99.90
18581;DHT22;9420;50.876;7.012;2023-05-10T01:57:51;13.30;99.90
18581;DHT22;9420;50.876;7.012;2023-05-10T02:00:26;13.30;99.90
18581;DHT22;9420;50.876;7.012;2023-05-10T02:02:55;13.30;99.90
18581;DHT22;9420;50.876;7.012;2023-05-10T02:05:25;13.30;99.90
18581;DHT22;9420;50.876;7.012;2023-05-10T02:07:56;13.30;99.90
18581;DHT22;9420;50.876;7.012;2023-05-10T02:10:26;13.30;99.90
18581;DHT22;9420;50.876;7.012;2023-05-10T02:12:55;13.30;99.90
18581;DHT22;9420;50.876;7.012;2023-05-10T02:15:26;13.30;99.90
18581;DHT22;9420;50.876;7.012;2023-05-10T02:17:55;13.30;99.90
18581;DHT22;9420;50.876;7.012;2023-05-10T02:20:26;13.30;99.90
18581;DHT22;9420;50.876;7.012;2023-05-10T02:22:54;13.30;99.90
18581;DHT22;9420;50.876;7.012;2023-05-10T02:25:24;13.30;99.90
18581;DHT22;9420;50.876;7.012;2023-05-10T02:27:55;13.30;99.90
18581;DHT22;9420;50.876;7.012;2023-05-10T02:30:26;13.40;99.90
18581;DHT22;9420;50.876;7.012;2023-05-10T02:32:55;13.40;99.90
18581;DHT22;9420;50.876;7.012;2023-05-10T02:35:27;13.40;99.90
18581;DHT22;9420;50.876;7.012;2023-05-10T02:37:57;13.30;99.90
18581;DHT22;9420;50.876;7.012;2023-05-10T02:40:26;13.40;99.90
18581;DHT22;9420;50.876;7.012;2023-05-10T02:42:56;13.30;99.90
18581;DHT22;9420;50.876;7.012;2023-05-10T02:45:27;13.40;99.90
18581;DHT22;9420;50.876;7.012;2023-05-10T02:47:56;13.40;99.90
18581;DHT22;9420;50.876;7.012;2023-05-10T02:50:28;13.40;99.90
18581;DHT22;9420;50.876;7.012;2023-05-10T02:53:03;13.40;99.90
18581;DHT22;9420;50.876;7.012;2023-05-10T02:55:38;13.50;99.90
18581;DHT22;9420;50.876;7.012;2023-05-10T02:58:08;13.50;99.90
18581;DHT22;9420;50.876;7.012;2023-05-10T03:00:36;13.50;99.90
18581;DHT22;9420;50.876;7.012;2023-05-10T03:03:03;13.50;99.90
18581;DHT22;9420;50.876;7.012;2023-05-10T03:05:31;13.50;99.90
18581;DHT22;9420;50.876;7.012;2023-05-10T03:07:59;13.30;99.90
18581;DHT22;9420;50.876;7.012;2023-05-10T03:10:30;13.40;99.90
18581;DHT22;9420;50.876;7.012;2023-05-10T03:13:07;13.40;99.90
18581;DHT22;9420;50.876;7.012;2023-05-10T03:15:50;13.40;99.90
18581;DHT22;9420;50.876;7.012;2023-05-10T03:18:29;13.40;99.90
18581;DHT22;9420;50.876;7.012;2023-05-10T03:21:07;13.40;99.90
18581;DHT22;9420;50.876;7.012;2023-05-10T03:23:43;13.40;99.90
18581;DHT22;9420;50.876;7.012;2023-05-10T03:26:17;13.40;99.90
18581;DHT22;9420;50.876;7.012;2023-05-10T03:28:48;13.40;99.90
18581;DHT22;9420;50.876;7.012;2023-05-10T03:31:17;13.40;99.90
18581;DHT22;9420;50.876;7.012;2023-05-10T03:33:48;13.40;99.90
18581;DHT22;9420;50.876;7.012;2023-05-10T03:36:17;13.40;99.90
18581;DHT22;9420;50.876;7.012;2023-05-10T03:38:44;13.40;99.90
18581;DHT22;9420;50.876;7.012;2023-05-10T03:41:12;13.30;99.90
18581;DHT22;9420;50.876;7.012;2023-05-10T03:43:39;13.40;99.90
18581;DHT22;9420;50.876;7.012;2023-05-10T03:46:06;13.40;99.90
18581;DHT22;9420;50.876;7.012;2023-05-10T03:48:33;13.40;99.90
18581;DHT22;9420;50.876;7.012;2023-05-10T03:51:00;13.40;99.90
18581;DHT22;9420;50.876;7.012;2023-05-10T03:53:29;13.40;99.90
18581;DHT22;9420;50.876;7.012;2023-05-10T03:55:55;13.40;99.90
18581;DHT22;9420;50.876;7.012;2023-05-10T03:58:22;13.40;99.90
18581;DHT22;9420;50.876;7.012;2023-05-10T04:00:50;13.40;99.90
18581;DHT22;9420;50.876;7.012;2023-05-10T04:03:17;13.40;99.90
18581;DHT22;9420;50.876;7.012;2023-05-10T04:05:45;13.40;99.90
18581;DHT22;9420;50.876;7.012;2023-05-10T04:08:12;13.40;99.90
18581;DHT22;9420;50.876;7.012;2023-05-10T04:10:41;13.40;99.90
18581;DHT22;9420;50.876;7.012;2023-05-10T04:13:08;13.40;99.90
18581;DHT22;9420;50.876;7.012;2023-05-10T04:15:36;13.40;99.90
18581;DHT22;9420;50.876;7.012;2023-05-10T04:18:03;13.40;99.90
18581;DHT22;9420;50.876;7.012;2023-05-10T04:20:32;13.40;99.90
18581;DHT22;9420;50.876;7.012;2023-05-10T04:22:59;13.50;99.90
18581;DHT22;9420;50.876;7.012;2023-05-10T04:25:26;13.50;99.90
18581;DHT22;9420;50.876;7.012;2023-05-10T04:27:55;13.50;99.90
18581;DHT22;9420;50.876;7.012;2023-05-10T04:30:21;13.40;99.90
18581;DHT22;9420;50.876;7.012;2023-05-10T04:32:49;13.50;99.90
18581;DHT22;9420;50.876;7.012;2023-05-10T04:35:16;13.50;99.90
18581;DHT22;9420;50.876;7.012;2023-05-10T04:37:43;13.50;99.90
18581;DHT22;9420;50.876;7.012;2023-05-10T04:40:11;13.50;99.90
18581;DHT22;9420;50.876;7.012;2023-05-10T04:42:40;13.50;99.90
18581;DHT22;9420;50.876;7.012;2023-05-10T04:45:17;13.50;99.90
18581;DHT22;9420;50.876;7.012;2023-05-10T04:47:47;13.60;99.90
18581;DHT22;9420;50.876;7.012;2023-05-10T04:50:14;13.60;99.90
18581;DHT22;9420;50.876;7.012;2023-05-10T04:52:41;13.60;99.90
18581;DHT22;9420;50.876;7.012;2023-05-10T04:55:08;13.60;99.90
18581;DHT22;9420;50.876;7.012;2023-05-10T04:57:35;13.70;99.90
18581;DHT22;9420;50.876;7.012;2023-05-10T05:00:03;13.60;99.90
18581;DHT22;9420;50.876;7.012;2023-05-10T05:02:32;13.70;99.90
18581;DHT22;9420;50.876;7.012;2023-05-10T05:04:59;13.70;99.90
18581;DHT22;9420;50.876;7.012;2023-05-10T05:07:26;13.70;99.90
18581;DHT22;9420;50.876;7.012;2023-05-10T05:09:52;13.70;99.90
18581;DHT22;9420;50.876;7.012;2023-05-10T05:12:19;13.70;99.90
18581;DHT22;9420;50.876;7.012;2023-05-10T05:14:47;13.80;99.90
18581;DHT22;9420;50.876;7.012;2023-05-10T05:17:14;13.80;99.90
18581;DHT22;9420;50.876;7.012;2023-05-10T05:19:42;13.70;99.90
18581;DHT22;9420;50.876;7.012;2023-05-10T05:22:09;13.70;99.90
18581;DHT22;9420;50.876;7.012;2023-05-10T05:24:36;13.70;99.90
18581;DHT22;9420;50.876;7.012;2023-05-10T05:27:04;13.80;99.90
18581;DHT22;9420;50.876;7.012;2023-05-10T05:29:31;13.70;99.90
18581;DHT22;9420;50.876;7.012;2023-05-10T05:31:58;13.70;99.90
18581;DHT22;9420;50.876;7.012;2023-05-10T05:34:26;13.70;99.90
18581;DHT22;9420;50.876;7.012;2023-05-10T05:36:54;13.70;99.90
18581;DHT22;9420;50.876;7.012;2023-05-10T05:39:21;13.70;99.90
18581;DHT22;9420;50.876;7.012;2023-05-10T05:41:49;13.70;99.90
18581;DHT22;9420;50.876;7.012;2023-05-10T05:44:16;13.70;99.90
18581;DHT22;9420;50.876;7.012;2023-05-10T05:46:43;13.70;99.90
18581;DHT22;9420;50.876;7.012;2023-05-10T05:49:10;13.80;99.90
18581;DHT22;9420;50.876;7.012;2023-05-10T05:51:37;13.80;99.90
18581;DHT22;9420;50.876;7.012;2023-05-10T05:54:06;13.80;99.90
18581;DHT22;9420;50.876;7.012;2023-05-10T05:56:33;13.80;99.90
18581;DHT22;9420;50.876;7.012;2023-05-10T05:59:00;13.90;99.90
18581;DHT22;9420;50.876;7.012;2023-05-10T06:01:27;13.90;99.90
18581;DHT22;9420;50.876;7.012;2023-05-10T06:03:54;14.00;99.90
18581;DHT22;9420;50.876;7.012;2023-05-10T06:06:21;14.00;99.90
18581;DHT22;9420;50.876;7.012;2023-05-10T06:08:48;14.10;99.90
18581;DHT22;9420;50.876;7.012;2023-05-10T06:11:17;14.10;99.90
18581;DHT22;9420;50.876;7.012;2023-05-10T06:13:44;14.20;99.90
18581;DHT22;9420;50.876;7.012;2023-05-10T06:16:11;14.20;99.90
18581;DHT22;9420;50.876;7.012;2023-05-10T06:18:38;14.10;99.90
18581;DHT22;9420;50.876;7.012;2023-05-10T06:21:05;14.20;99.90
18581;DHT22;9420;50.876;7.012;2023-05-10T06:23:33;14.20;99.90
18581;DHT22;9420;50.876;7.012;2023-05-10T06:26:00;14.20;22.90
18581;DHT22;9420;50.876;7.012;2023-05-10T06:28:28;14.20;37.40
18581;DHT22;9420;50.876;7.012;2023-05-10T06:30:56;14.30;99.90
18581;DHT22;9420;50.876;7.012;2023-05-10T06:33:24;14.20;99.90
18581;DHT22;9420;50.876;7.012;2023-05-10T06:35:51;14.30;99.90
18581;DHT22;9420;50.876;7.012;2023-05-10T06:38:18;14.20;99.90
18581;DHT22;9420;50.876;7.012;2023-05-10T06:40:45;14.10;99.90
18581;DHT22;9420;50.876;7.012;2023-05-10T06:43:12;14.10;99.90
18581;DHT22;9420;50.876;7.012;2023-05-10T06:45:42;14.10;99.90
18581;DHT22;9420;50.876;7.012;2023-05-10T06:48:09;14.00;70.50
18581;DHT22;9420;50.876;7.012;2023-05-10T06:50:36;14.10;90.90
18581;DHT22;9420;50.876;7.012;2023-05-10T06:53:03;14.00;99.90
18581;DHT22;9420;50.876;7.012;2023-05-10T06:55:30;13.90;99.90
18581;DHT22;9420;50.876;7.012;2023-05-10T06:57:57;13.90;99.90
18581;DHT22;9420;50.876;7.012;2023-05-10T07:00:24;13.90;99.90
18581;DHT22;9420;50.876;7.012;2023-05-10T07:02:52;14.00;99.90
18581;DHT22;9420;50.876;7.012;2023-05-10T07:05:20;14.00;99.90
18581;DHT22;9420;50.876;7.012;2023-05-10T07:07:48;14.00;99.90
18581;DHT22;9420;50.876;7.012;2023-05-10T07:10:15;14.00;99.90
18581;DHT22;9420;50.876;7.012;2023-05-10T07:12:43;14.00;90.00
18581;DHT22;9420;50.876;7.012;2023-05-10T07:15:10;14.00;47.50
18581;DHT22;9420;50.876;7.012;2023-05-10T07:17:37;13.90;1.00
18581;DHT22;9420;50.876;7.012;2023-05-10T07:20:08;13.90;1.00
18581;DHT22;9420;50.876;7.012;2023-05-10T07:22:35;13.90;1.00
18581;DHT22;9420;50.876;7.012;2023-05-10T07:25:03;13.90;1.00
18581;DHT22;9420;50.876;7.012;2023-05-10T07:27:30;13.80;47.90
18581;DHT22;9420;50.876;7.012;2023-05-10T07:29:58;13.80;67.90
18581;DHT22;9420;50.876;7.012;2023-05-10T07:32:25;13.80;99.90
18581;DHT22;9420;50.876;7.012;2023-05-10T07:34:52;13.70;99.90
18581;DHT22;9420;50.876;7.012;2023-05-10T07:37:21;13.70;99.90
18581;DHT22;9420;50.876;7.012;2023-05-10T07:39:48;13.80;99.90
18581;DHT22;9420;50.876;7.012;2023-05-10T07:42:15;13.80;99.90
18581;DHT22;9420;50.876;7.012;2023-05-10T07:44:42;13.80;99.90
18581;DHT22;9420;50.876;7.012;2023-05-10T07:47:09;13.90;99.90
18581;DHT22;9420;50.876;7.012;2023-05-10T07:49:37;13.90;99.90
18581;DHT22;9420;50.876;7.012;2023-05-10T07:52:04;13.90;99.90
18581;DHT22;9420;50.876;7.012;2023-05-10T07:54:32;14.00;99.90
18581;DHT22;9420;50.876;7.012;2023-05-10T07:57:00;14.10;99.90
18581;DHT22;9420;50.876;7.012;2023-05-10T07:59:27;14.20;99.90
18581;DHT22;9420;50.876;7.012;2023-05-10T08:01:54;14.20;99.90
18581;DHT22;9420;50.876;7.012;2023-05-10T08:04:21;14.30;99.90
18581;DHT22;9420;50.876;7.012;2023-05-10T08:06:48;14.30;99.90
18581;DHT22;9420;50.876;7.012;2023-05-10T08:09:16;14.40;99.90
18581;DHT22;9420;50.876;7.012;2023-05-10T08:11:44;14.50;99.90
18581;DHT22;9420;50.876;7.012;2023-05-10T08:14:11;14.60;88.40
18581;DHT22;9420;50.876;7.012;2023-05-10T08:16:38;14.80;1.00
18581;DHT22;9420;50.876;7.012;2023-05-10T08:19:08;15.00;1.00
18581;DHT22;9420;50.876;7.012;2023-05-10T08:21:35;15.10;1.00
18581;DHT22;9420;50.876;7.012;2023-05-10T08:24:03;15.20;1.00
18581;DHT22;9420;50.876;7.012;2023-05-10T08:26:32;15.20;1.00
18581;DHT22;9420;50.876;7.012;2023-05-10T08:29:01;15.30;99.90
18581;DHT22;9420;50.876;7.012;2023-05-10T08:31:28;15.20;1.00
18581;DHT22;9420;50.876;7.012;2023-05-10T08:33:55;15.30;1.00
18581;DHT22;9420;50.876;7.012;2023-05-10T08:36:22;15.20;99.90
18581;DHT22;9420;50.876;7.012;2023-05-10T08:38:50;15.20;1.00
18581;DHT22;9420;50.876;7.012;2023-05-10T08:41:19;15.10;99.90
18581;DHT22;9420;50.876;7.012;2023-05-10T08:43:47;15.10;1.00
18581;DHT22;9420;50.876;7.012;2023-05-10T08:46:17;15.00;1.00
18581;DHT22;9420;50.876;7.012;2023-05-10T08:48:47;14.80;99.90
18581;DHT22;9420;50.876;7.012;2023-05-10T08:51:19;14.70;1.00
18581;DHT22;9420;50.876;7.012;2023-05-10T08:53:49;14.40;1.00
18581;DHT22;9420;50.876;7.012;2023-05-10T08:56:18;14.20;1.00
18581;DHT22;9420;50.876;7.012;2023-05-10T08:58:46;14.00;1.00
18581;DHT22;9420;50.876;7.012;2023-05-10T09:01:18;14.10;25.60
18581;DHT22;9420;50.876;7.012;2023-05-10T09:03:46;14.10;99.90
18581;DHT22;9420;50.876;7.012;2023-05-10T09:06:14;14.10;99.90
18581;DHT22;9420;50.876;7.012;2023-05-10T09:08:42;14.20;99.90
18581;DHT22;9420;50.876;7.012;2023-05-10T09:11:12;14.30;99.90
18581;DHT22;9420;50.876;7.012;2023-05-10T09:13:39;14.50;99.90
18581;DHT22;9420;50.876;7.012;2023-05-10T09:16:07;14.50;99.90
18581;DHT22;9420;50.876;7.012;2023-05-10T09:18:35;14.60;99.90
18581;DHT22;9420;50.876;7.012;2023-05-10T09:21:02;14.70;99.90
18581;DHT22;9420;50.876;7.012;2023-05-10T09:23:29;14.80;99.90
18581;DHT22;9420;50.876;7.012;2023-05-10T09:26:04;15.00;99.90
18581;DHT22;9420;50.876;7.012;2023-05-10T09:28:32;15.30;95.30
18581;DHT22;9420;50.876;7.012;2023-05-10T09:31:00;15.80;90.70
18581;DHT22;9420;50.876;7.012;2023-05-10T09:33:27;15.90;1.00
18581;DHT22;9420;50.876;7.012;2023-05-10T09:35:55;15.80;99.90
18581;DHT22;9420;50.876;7.012;2023-05-10T09:38:45;15.50;1.00
18581;DHT22;9420;50.876;7.012;2023-05-10T09:41:17;15.50;99.90
18581;DHT22;9420;50.876;7.012;2023-05-10T09:43:46;15.50;1.00
18581;DHT22;9420;50.876;7.012;2023-05-10T09:46:13;15.30;1.00
18581;DHT22;9420;50.876;7.012;2023-05-10T09:48:43;15.20;1.00
18581;DHT22;9420;50.876;7.012;2023-05-10T09:51:18;15.20;1.00
18581;DHT22;9420;50.876;7.012;2023-05-10T09:53:47;15.30;1.00
18581;DHT22;9420;50.876;7.012;2023-05-10T09:56:32;15.30;1.00
18581;DHT22;9420;50.876;7.012;2023-05-10T09:59:04;15.40;1.00
18581;DHT22;9420;50.876;7.012;2023-05-10T10:01:31;15.60;1.00
18581;DHT22;9420;50.876;7.012;2023-05-10T10:04:02;15.80;1.00
18581;DHT22;9420;50.876;7.012;2023-05-10T10:06:36;15.90;99.90
18581;DHT22;9420;50.876;7.012;2023-05-10T10:09:04;16.00;1.00
18581;DHT22;9420;50.876;7.012;2023-05-10T10:11:34;16.20;1.00
18581;DHT22;9420;50.876;7.012;2023-05-10T10:14:02;16.00;99.90
18581;DHT22;9420;50.876;7.012;2023-05-10T10:16:31;16.20;99.90
18581;DHT22;9420;50.876;7.012;2023-05-10T10:18:58;16.50;99.90
18581;DHT22;9420;50.876;7.012;2023-05-10T10:21:25;16.70;1.00
18581;DHT22;9420;50.876;7.012;2023-05-10T10:23:54;16.60;99.90
18581;DHT22;9420;50.876;7.012;2023-05-10T10:26:21;16.50;1.00
18581;DHT22;9420;50.876;7.012;2023-05-10T10:29:00;16.40;1.00
18581;DHT22;9420;50.876;7.012;2023-05-10T10:31:40;16.50;99.90
18581;DHT22;9420;50.876;7.012;2023-05-10T10:34:22;16.50;1.00
18581;DHT22;9420;50.876;7.012;2023-05-10T10:36:54;16.30;1.00
18581;DHT22;9420;50.876;7.012;2023-05-10T10:39:24;16.40;99.90
18581;DHT22;9420;50.876;7.012;2023-05-10T10:41:53;16.60;1.00
18581;DHT22;9420;50.876;7.012;2023-05-10T10:44:35;16.70;99.90
18581;DHT22;9420;50.876;7.012;2023-05-10T10:47:23;16.80;1.00
18581;DHT22;9420;50.876;7.012;2023-05-10T10:50:03;16.70;1.00
18581;DHT22;9420;50.876;7.012;2023-05-10T10:52:33;16.50;99.90
18581;DHT22;9420;50.876;7.012;2023-05-10T10:55:04;16.40;99.90
18581;DHT22;9420;50.876;7.012;2023-05-10T10:57:43;16.40;99.90
18581;DHT22;9420;50.876;7.012;2023-05-10T11:00:28;16.50;99.90
18581;DHT22;9420;50.876;7.012;2023-05-10T11:02:58;16.80;1.00
18581;DHT22;9420;50.876;7.012;2023-05-10T11:05:39;16.90;1.00
18581;DHT22;9420;50.876;7.012;2023-05-10T11:08:20;16.80;99.90
18581;DHT22;9420;50.876;7.012;2023-05-10T11:11:04;17.00;1.00
18581;DHT22;9420;50.876;7.012;2023-05-10T11:13:39;17.00;99.90
18581;DHT22;9420;50.876;7.012;2023-05-10T11:16:13;16.80;1.00
18581;DHT22;9420;50.876;7.012;2023-05-10T11:18:52;16.70;1.00
18581;DHT22;9420;50.876;7.012;2023-05-10T11:21:20;16.70;1.00
18581;DHT22;9420;50.876;7.012;2023-05-10T11:23:49;16.80;1.00
18581;DHT22;9420;50.876;7.012;2023-05-10T11:26:19;16.70;1.00
18581;DHT22;9420;50.876;7.012;2023-05-10T11:28:49;16.50;1.00
18581;DHT22;9420;50.876;7.012;2023-05-10T11:31:17;16.50;99.90
18581;DHT22;9420;50.876;7.012;2023-05-10T11:33:46;16.40;99.90
18581;DHT22;9420;50.876;7.012;2023-05-10T11:36:16;16.50;99.90
18581;DHT22;9420;50.876;7.012;2023-05-10T11:38:44;16.50;99.90
18581;DHT22;9420;50.876;7.012;2023-05-10T11:41:12;16.40;69.10
18581;DHT22;9420;50.876;7.012;2023-05-10T11:43:42;16.50;6.30
18581;DHT22;9420;50.876;7.012;2023-05-10T11:46:11;16.60;1.00
18581;DHT22;9420;50.876;7.012;2023-05-10T11:48:40;16.80;1.00
18581;DHT22;9420;50.876;7.012;2023-05-10T11:51:08;16.70;1.00
18581;DHT22;9420;50.876;7.012;2023-05-10T11:53:36;16.60;1.00
18581;DHT22;9420;50.876;7.012;2023-05-10T11:56:04;16.90;1.00
18581;DHT22;9420;50.876;7.012;2023-05-10T11:58:32;17.20;1.00
18581;DHT22;9420;50.876;7.012;2023-05-10T12:01:02;17.20;99.90
18581;DHT22;9420;50.876;7.012;2023-05-10T12:03:30;17.40;99.90
18581;DHT22;9420;50.876;7.012;2023-05-10T12:05:58;17.20;99.90
18581;DHT22;9420;50.876;7.012;2023-05-10T12:08:29;17.50;99.90
18581;DHT22;9420;50.876;7.012;2023-05-10T12:11:06;17.80;99.90
18581;DHT22;9420;50.876;7.012;2023-05-10T12:13:37;18.30;99.90
18581;DHT22;9420;50.876;7.012;2023-05-10T12:16:15;18.20;1.00
18581;DHT22;9420;50.876;7.012;2023-05-10T12:18:44;18.20;1.00
18581;DHT22;9420;50.876;7.012;2023-05-10T12:21:12;18.20;1.00
18581;DHT22;9420;50.876;7.012;2023-05-10T12:23:39;18.50;1.00
18581;DHT22;9420;50.876;7.012;2023-05-10T12:26:09;18.40;1.00
18581;DHT22;9420;50.876;7.012;2023-05-10T12:28:37;18.60;1.00
18581;DHT22;9420;50.876;7.012;2023-05-10T12:31:06;18.60;1.00
18581;DHT22;9420;50.876;7.012;2023-05-10T12:33:40;18.90;1.00
18581;DHT22;9420;50.876;7.012;2023-05-10T12:36:09;18.40;99.90
18581;DHT22;9420;50.876;7.012;2023-05-10T12:38:37;18.50;99.90
18581;DHT22;9420;50.876;7.012;2023-05-10T12:41:07;18.90;99.90
18581;DHT22;9420;50.876;7.012;2023-05-10T12:43:36;18.90;99.90
18581;DHT22;9420;50.876;7.012;2023-05-10T12:46:07;19.30;99.90
18581;DHT22;9420;50.876;7.012;2023-05-10T12:48:36;19.50;99.90
18581;DHT22;9420;50.876;7.012;2023-05-10T12:51:06;19.60;89.10
18581;DHT22;9420;50.876;7.012;2023-05-10T12:53:35;19.80;42.70
18581;DHT22;9420;50.876;7.012;2023-05-10T12:56:02;19.70;1.00
18581;DHT22;9420;50.876;7.012;2023-05-10T12:58:29;19.60;1.00
18581;DHT22;9420;50.876;7.012;2023-05-10T13:00:57;20.70;1.00
18581;DHT22;9420;50.876;7.012;2023-05-10T13:03:24;21.20;1.00
18581;DHT22;9420;50.876;7.012;2023-05-10T13:05:52;22.10;1.00
18581;DHT22;9420;50.876;7.012;2023-05-10T13:08:19;22.70;1.00
18581;DHT22;9420;50.876;7.012;2023-05-10T13:10:46;22.80;1.00
18581;DHT22;9420;50.876;7.012;2023-05-10T13:13:15;22.40;1.00
18581;DHT22;9420;50.876;7.012;2023-05-10T13:15:43;22.80;1.00
18581;DHT22;9420;50.876;7.012;2023-05-10T13:18:10;21.60;1.00
18581;DHT22;9420;50.876;7.012;2023-05-10T13:20:37;21.50;1.00
18581;DHT22;9420;50.876;7.012;2023-05-10T13:23:06;20.60;99.90
18581;DHT22;9420;50.876;7.012;2023-05-10T13:25:33;19.90;99.90
18581;DHT22;9420;50.876;7.012;2023-05-10T13:28:00;20.00;99.90
18581;DHT22;9420;50.876;7.012;2023-05-10T13:30:27;20.90;99.90
18581;DHT22;9420;50.876;7.012;2023-05-10T13:32:54;22.00;99.90
18581;DHT22;9420;50.876;7.012;2023-05-10T13:35:22;22.30;99.90
18581;DHT22;9420;50.876;7.012;2023-05-10T13:37:49;22.50;99.90
18581;DHT22;9420;50.876;7.012;2023-05-10T13:40:17;22.40;99.90
18581;DHT22;9420;50.876;7.012;2023-05-10T13:42:44;22.40;99.90
18581;DHT22;9420;50.876;7.012;2023-05-10T13:45:12;22.90;99.90
18581;DHT22;9420;50.876;7.012;2023-05-10T13:47:39;23.80;99.90
18581;DHT22;9420;50.876;7.012;2023-05-10T13:50:07;23.70;99.90
18581;DHT22;9420;50.876;7.012;2023-05-10T13:52:34;22.30;99.90
18581;DHT22;9420;50.876;7.012;2023-05-10T13:55:01;20.90;99.90
18581;DHT22;9420;50.876;7.012;2023-05-10T13:57:30;20.60;99.90
18581;DHT22;9420;50.876;7.012;2023-05-10T13:59:57;20.60;99.90
18581;DHT22;9420;50.876;7.012;2023-05-10T14:02:24;20.80;99.90
18581;DHT22;9420;50.876;7.012;2023-05-10T14:04:52;20.40;99.90
18581;DHT22;9420;50.876;7.012;2023-05-10T14:07:19;20.50;99.90
18581;DHT22;9420;50.876;7.012;2023-05-10T14:09:47;19.70;99.90
18581;DHT22;9420;50.876;7.012;2023-05-10T14:12:14;19.50;99.90
18581;DHT22;9420;50.876;7.012;2023-05-10T14:14:43;19.70;99.90
18581;DHT22;9420;50.876;7.012;2023-05-10T14:17:10;20.70;99.90
18581;DHT22;9420;50.876;7.012;2023-05-10T14:19:37;21.40;99.90
18581;DHT22;9420;50.876;7.012;2023-05-10T14:22:04;21.10;99.90
18581;DHT22;9420;50.876;7.012;2023-05-10T14:24:31;20.40;99.90
18581;DHT22;9420;50.876;7.012;2023-05-10T14:26:58;20.20;99.90
18581;DHT22;9420;50.876;7.012;2023-05-10T14:29:25;19.90;99.90
18581;DHT22;9420;50.876;7.012;2023-05-10T14:31:54;19.60;99.90
18581;DHT22;9420;50.876;7.012;2023-05-10T14:34:21;19.20;99.90
18581;DHT22;9420;50.876;7.012;2023-05-10T14:36:48;18.50;99.90
18581;DHT22;9420;50.876;7.012;2023-05-10T14:39:15;18.40;99.90
18581;DHT22;9420;50.876;7.012;2023-05-10T14:41:42;18.30;99.90
18581;DHT22;9420;50.876;7.012;2023-05-10T14:44:10;18.10;99.90
18581;DHT22;9420;50.876;7.012;2023-05-10T14:46:38;18.50;99.90
18581;DHT22;9420;50.876;7.012;2023-05-10T14:49:07;18.60;99.90
18581;DHT22;9420;50.876;7.012;2023-05-10T14:51:34;18.70;99.90
18581;DHT22;9420;50.876;7.012;2023-05-10T14:54:02;18.80;99.90
18581;DHT22;9420;50.876;7.012;2023-05-10T14:56:29;18.80;99.90
18581;DHT22;9420;50.876;7.012;2023-05-10T14:58:56;18.90;99.90
18581;DHT22;9420;50.876;7.012;2023-05-10T15:01:23;18.80;99.90
18581;DHT22;9420;50.876;7.012;2023-05-10T15:03:50;19.30;99.90
18581;DHT22;9420;50.876;7.012;2023-05-10T15:06:30;19.30;99.90
18581;DHT22;9420;50.876;7.012;2023-05-10T15:08:58;19.80;99.90
18581;DHT22;9420;50.876;7.012;2023-05-10T15:11:25;20.20;99.90
18581;DHT22;9420;50.876;7.012;2023-05-10T15:13:52;19.90;99.90
18581;DHT22;9420;50.876;7.012;2023-05-10T15:16:20;20.30;99.90
18581;DHT22;9420;50.876;7.012;2023-05-10T15:18:47;21.60;99.90
18581;DHT22;9420;50.876;7.012;2023-05-10T15:21:15;22.90;31.90
18581;DHT22;9420;50.876;7.012;2023-05-10T15:23:43;22.30;1.00
18581;DHT22;9420;50.876;7.012;2023-05-10T15:26:10;21.70;14.90
18581;DHT22;9420;50.876;7.012;2023-05-10T15:28:37;20.90;23.00
18581;DHT22;9420;50.876;7.012;2023-05-10T15:31:05;20.90;1.00
18581;DHT22;9420;50.876;7.012;2023-05-10T15:33:32;21.70;23.80
18581;DHT22;9420;50.876;7.012;2023-05-10T15:35:59;21.70;1.00
18581;DHT22;9420;50.876;7.012;2023-05-10T15:38:26;20.90;1.00
18581;DHT22;9420;50.876;7.012;2023-05-10T15:40:56;20.10;1.00
18581;DHT22;9420;50.876;7.012;2023-05-10T15:43:25;19.50;1.00
18581;DHT22;9420;50.876;7.012;2023-05-10T15:45:52;19.20;10.30
18581;DHT22;9420;50.876;7.012;2023-05-10T15:48:19;19.00;37.90
18581;DHT22;9420;50.876;7.012;2023-05-10T15:50:46;18.60;1.00
18581;DHT22;9420;50.876;7.012;2023-05-10T15:53:13;18.40;1.00
18581;DHT22;9420;50.876;7.012;2023-05-10T15:55:39;18.20;1.00
18581;DHT22;9420;50.876;7.012;2023-05-10T15:58:08;18.20;29.20
18581;DHT22;9420;50.876;7.012;2023-05-10T16:00:35;18.20;96.50
18581;DHT22;9420;50.876;7.012;2023-05-10T16:03:02;18.30;99.90
18581;DHT22;9420;50.876;7.012;2023-05-10T16:05:29;18.40;94.20
18581;DHT22;9420;50.876;7.012;2023-05-10T16:07:58;18.60;99.90